Terminal Aerodrome Forecast
Issued by NWS

Home | Current Version | Previous Version | Text Only | Print | Product List | Glossary On
Versions: 1 2 3 4 5 6 7 8 9 10 11 12 13 14 15 16 17 18 19 20 21 22
434
FTAK31 PAJN 172201 AAA
TAFAKT
TAF AMD
PAKT 172201Z 1722/1818 15010KT 6SM -RA BR FEW007 SCT025 OVC035
     FM180600 15010G20KT 4SM -RA BR OVC020 WS020/13035KT
     FM181200 14018G28KT 4SM -RA BR OVC020 WS020/13045KT
      AMD LTD TO CLD VIS AND WIND 1806/1815=

USA.gov is the U.S. government's official web portal to all federal, state and local government web resources and services.